Time;durP1;ratioP1;P1;durP2;ratioP2;P2;SDS_P1;SDS_P2;PMS_P1;PMS_P2;Temp;Humidity;BMP_temperature;BMP_pressure;BME280_temperature;BME280_humidity;BME280_pressure;Samples;Min_cycle;Max_cycle;Signal;HPM_P1;HPM_P2
2021/09/12 00:01:12;;;;;;;18.07;12.25;;;;;;;24.23;44.89;101313.25;1771362;80;20978;-47
2021/09/12 00:03:38;;;;;;;15.70;12.37;;;;;;;24.20;45.06;101317.47;1772203;80;21525;-49
2021/09/12 00:06:05;;;;;;;15.38;12.50;;;;;;;24.20;45.07;101324.13;1788891;80;21069;-47
2021/09/12 00:08:32;;;;;;;16.35;12.40;;;;;;;24.18;44.61;101322.05;1776340;80;21042;-47
2021/09/12 00:11:00;;;;;;;14.70;12.60;;;;;;;24.16;44.39;101322.63;1769200;80;21485;-49
2021/09/12 00:13:27;;;;;;;23.50;12.35;;;;;;;24.12;44.65;101313.63;1772545;80;21013;-49
2021/09/12 00:15:55;;;;;;;14.35;11.57;;;;;;;24.09;44.54;101318.67;1786504;80;21039;-47
2021/09/12 00:18:22;;;;;;;13.93;12.37;;;;;;;24.08;44.42;101318.80;1773103;80;21041;-47
2021/09/12 00:20:49;;;;;;;14.85;12.15;;;;;;;24.07;44.52;101311.80;1774043;80;21065;-49
2021/09/12 00:23:16;;;;;;;20.27;12.63;;;;;;;24.05;44.62;101311.87;1771303;80;21048;-50
2021/09/12 00:25:43;;;;;;;14.03;12.50;;;;;;;24.04;44.59;101310.66;1771227;80;21010;-49
2021/09/12 00:28:11;;;;;;;15.60;11.70;;;;;;;24.01;44.82;101306.36;1773774;80;21477;-47
2021/09/12 00:30:39;;;;;;;15.38;12.15;;;;;;;24.00;45.07;101311.33;1774326;80;21009;-48
2021/09/12 00:33:06;;;;;;;15.70;12.25;;;;;;;23.93;44.63;101312.69;1774703;80;21500;-46
2021/09/12 00:35:33;;;;;;;13.90;11.83;;;;;;;23.93;44.63;101312.69;1781675;80;21053;-48
2021/09/12 00:37:59;;;;;;;14.03;12.37;;;;;;;23.91;44.96;101311.94;1773593;80;21037;-50
2021/09/12 00:40:26;;;;;;;17.98;12.35;;;;;;;23.89;44.78;101303.22;1775016;80;20985;-47
2021/09/12 00:42:53;;;;;;;17.55;12.73;;;;;;;23.87;45.14;101303.80;1773938;80;20998;-47
2021/09/12 00:45:20;;;;;;;13.08;11.55;;;;;;;23.86;45.07;101308.76;1774538;80;21509;-49
2021/09/12 00:47:47;;;;;;;13.62;11.65;;;;;;;23.84;44.76;101308.02;1773939;80;21002;-47
2021/09/12 00:50:16;;;;;;;13.15;11.73;;;;;;;23.81;44.75;101301.56;1771308;80;21021;-46
2021/09/12 00:52:45;;;;;;;16.87;12.07;;;;;;;23.81;44.61;101310.86;1770942;80;21024;-49
2021/09/12 00:55:13;;;;;;;18.65;11.30;;;;;;;23.79;44.95;101306.13;1772435;80;20961;-47
2021/09/12 00:57:44;;;;;;;16.95;12.28;;;;;;;23.79;44.89;101311.92;1774178;80;21005;-49
2021/09/12 01:00:13;;;;;;;14.18;11.78;;;;;;;23.78;45.35;101311.06;1773187;80;21037;-48
2021/09/12 01:02:42;;;;;;;16.25;11.88;;;;;;;23.84;45.20;101318.64;1774805;80;21061;-46
2021/09/12 01:05:10;;;;;;;13.85;11.73;;;;;;;23.85;45.33;101319.00;1768416;80;21485;-49
2021/09/12 01:07:39;;;;;;;17.48;12.13;;;;;;;23.85;45.46;101320.33;1778909;80;21037;-46
2021/09/12 01:10:09;;;;;;;14.58;12.45;;;;;;;23.81;45.83;101315.32;1774270;80;20986;-49
2021/09/12 01:12:35;;;;;;;17.82;12.37;;;;;;;23.82;45.74;101323.18;1686915;84;21133;-50
2021/09/12 01:15:06;;;;;;;18.02;12.78;;;;;;;23.82;46.04;101324.52;1688093;83;21027;-47
2021/09/12 01:17:32;;;;;;;13.45;11.83;;;;;;;23.81;46.24;101310.86;1701878;84;21614;-49
2021/09/12 01:20:01;;;;;;;14.10;11.60;;;;;;;23.83;46.26;101311.61;1696098;84;21024;-50
2021/09/12 01:22:29;;;;;;;14.63;11.63;;;;;;;23.78;46.18;101317.70;1696032;84;21027;-49
2021/09/12 01:24:56;;;;;;;14.90;12.60;;;;;;;23.74;46.17;101317.53;1696101;84;21619;-47
2021/09/12 01:27:22;;;;;;;13.38;11.78;;;;;;;23.74;46.29;101308.23;1696488;84;21033;-50
2021/09/12 01:29:49;;;;;;;13.18;11.48;;;;;;;23.74;47.08;101312.22;1696354;84;21014;-50
2021/09/12 01:32:16;;;;;;;13.00;11.60;;;;;;;23.73;47.53;101313.19;1695994;84;21564;-48
2021/09/12 01:34:43;;;;;;;17.45;12.65;;;;;;;23.70;47.74;101312.05;1696176;84;21056;-50
2021/09/12 01:37:09;;;;;;;16.77;12.18;;;;;;;23.76;47.46;101318.28;1696308;84;21011;-50
2021/09/12 01:39:36;;;;;;;17.25;13.32;;;;;;;23.76;47.08;101320.94;1696323;84;21446;-47
2021/09/12 01:42:04;;;;;;;15.23;12.33;;;;;;;23.76;47.31;101318.78;1696470;84;20974;-49
2021/09/12 01:44:32;;;;;;;17.62;11.85;;;;;;;23.74;47.57;101324.68;1695687;84;21051;-48
2021/09/12 01:46:58;;;;;;;14.70;12.37;;;;;;;23.73;47.59;101313.19;1696177;84;21563;-49
2021/09/12 01:49:26;;;;;;;17.62;12.18;;;;;;;23.74;47.83;101328.16;1696010;84;21103;-48
2021/09/12 01:51:53;;;;;;;14.18;11.70;;;;;;;23.74;48.14;101322.84;1696290;84;20970;-50
2021/09/12 01:54:20;;;;;;;13.35;11.97;;;;;;;23.74;48.43;101324.68;1696228;84;20987;-50
2021/09/12 01:56:47;;;;;;;12.95;11.65;;;;;;;23.72;48.94;101324.77;1696362;84;21030;-49
2021/09/12 01:59:15;;;;;;;14.65;12.63;;;;;;;23.71;48.70;101325.73;1695976;84;21039;-49
2021/09/12 02:01:41;;;;;;;14.03;12.35;;;;;;;23.69;48.87;101319.67;1696347;84;21513;-48
2021/09/12 02:04:08;;;;;;;15.18;12.13;;;;;;;23.68;48.49;101323.27;1696047;84;21095;-50
2021/09/12 02:06:37;;;;;;;14.30;12.78;;;;;;;23.69;48.45;101324.13;1696029;84;21026;-51
2021/09/12 02:09:04;;;;;;;17.45;12.85;;;;;;;23.65;48.75;101321.30;1696260;84;21062;-49
2021/09/12 02:11:31;;;;;;;15.15;12.20;;;;;;;23.65;48.91;101322.16;1696236;84;21051;-47
2021/09/12 02:14:01;;;;;;;16.60;13.18;;;;;;;23.64;49.16;101331.06;1695966;84;21128;-50
2021/09/12 02:16:29;;;;;;;15.80;12.68;;;;;;;23.66;48.56;101334.47;1717255;83;21066;-51
2021/09/12 02:18:56;;;;;;;13.32;11.93;;;;;;;23.69;48.55;101328.11;1721203;83;21094;-48
2021/09/12 02:21:25;;;;;;;14.43;12.15;;;;;;;23.69;48.83;101332.95;1735805;82;21089;-47
2021/09/12 02:23:51;;;;;;;16.67;12.68;;;;;;;23.71;48.89;101330.19;1734822;81;20982;-47
2021/09/12 02:26:19;;;;;;;16.55;12.25;;;;;;;23.72;48.77;101330.08;1735249;81;21057;-49
2021/09/12 02:28:45;;;;;;;13.83;12.37;;;;;;;23.70;48.37;101331.98;1706812;83;21045;-49
2021/09/12 02:31:12;;;;;;;13.22;11.85;;;;;;;23.69;48.52;101332.95;1722476;83;20994;-50
2021/09/12 02:33:39;;;;;;;15.45;12.37;;;;;;;23.69;48.40;101327.64;1735497;82;21073;-49
2021/09/12 02:36:06;;;;;;;15.58;12.60;;;;;;;23.67;47.98;101329.55;1734707;81;21415;-47
2021/09/12 02:38:33;;;;;;;13.78;12.25;;;;;;;23.67;48.12;101334.86;1735331;82;21038;-50
2021/09/12 02:41:00;;;;;;;13.98;11.75;;;;;;;23.65;48.33;101331.93;1721649;83;21050;-50
2021/09/12 02:43:29;;;;;;;15.20;12.70;;;;;;;23.64;48.03;101333.72;1719021;83;21002;-51
2021/09/12 02:45:57;;;;;;;17.65;11.40;;;;;;;23.66;47.88;101328.33;1722316;83;21002;-47
2021/09/12 02:48:23;;;;;;;13.28;11.97;;;;;;;23.65;47.76;101327.47;1716047;83;21022;-50
2021/09/12 02:50:50;;;;;;;13.10;11.80;;;;;;;23.63;47.75;101325.40;1718489;83;21100;-47
2021/09/12 02:53:16;;;;;;;15.53;12.43;;;;;;;23.58;47.82;101322.18;1722407;83;20983;-47
2021/09/12 02:55:43;;;;;;;14.33;12.82;;;;;;;23.59;47.80;101323.90;1737648;82;21530;-49
2021/09/12 02:58:11;;;;;;;14.18;12.68;;;;;;;23.55;47.76;101325.06;1734739;82;21034;-47
2021/09/12 03:00:38;;;;;;;14.30;11.83;;;;;;;23.51;47.69;101331.53;1734979;82;21458;-49
2021/09/12 03:03:04;;;;;;;14.43;12.65;;;;;;;23.47;47.89;101330.03;1737607;82;21041;-50
2021/09/12 03:05:32;;;;;;;14.30;12.80;;;;;;;23.44;47.97;101336.86;1719389;83;21023;-47
2021/09/12 03:08:00;;;;;;;14.60;12.18;;;;;;;23.41;48.09;101329.94;1722209;83;21027;-51
2021/09/12 03:10:26;;;;;;;15.23;12.75;;;;;;;23.40;48.25;101323.41;1722497;83;21045;-50
2021/09/12 03:12:55;;;;;;;14.65;11.93;;;;;;;23.38;48.09;101325.31;1720581;83;21030;-47
2021/09/12 03:15:23;;;;;;;18.98;13.80;;;;;;;23.37;48.26;101328.44;1716263;83;21073;-50
2021/09/12 03:17:49;;;;;;;15.72;12.75;;;;;;;23.35;48.47;101325.50;1724538;83;21546;-51
2021/09/12 03:20:16;;;;;;;14.05;12.60;;;;;;;23.34;48.51;101326.47;1707452;83;21009;-52
2021/09/12 03:22:42;;;;;;;16.73;12.78;;;;;;;23.27;48.78;101327.77;1742912;81;21004;-49
2021/09/12 03:25:11;;;;;;;15.53;13.35;;;;;;;23.20;49.04;101328.67;1742822;81;21591;-49
2021/09/12 03:27:39;;;;;;;13.58;11.88;;;;;;;23.26;48.71;101330.07;1747415;80;21018;-49
2021/09/12 03:30:07;;;;;;;14.00;12.37;;;;;;;23.19;48.66;101322.11;1756504;81;21041;-47
2021/09/12 03:32:34;;;;;;;18.27;12.78;;;;;;;23.15;48.92;101319.28;1743751;81;21460;-48
2021/09/12 03:35:01;;;;;;;16.80;14.15;;;;;;;23.12;49.16;101320.83;1743219;80;20991;-49
2021/09/12 03:37:28;;;;;;;14.47;12.82;;;;;;;23.12;49.42;101327.46;1744713;81;21054;-50
2021/09/12 03:39:54;;;;;;;18.20;12.70;;;;;;;23.14;49.52;101326.89;1745573;81;20983;-49
2021/09/12 03:42:21;;;;;;;17.73;13.53;;;;;;;23.15;49.66;101329.91;1744304;80;20970;-49
2021/09/12 03:44:48;;;;;;;14.35;12.85;;;;;;;23.12;49.33;101326.14;1743224;80;21055;-49
2021/09/12 03:47:15;;;;;;;15.90;12.37;;;;;;;23.13;49.13;101332.66;1743589;80;21082;-46
2021/09/12 03:49:42;;;;;;;17.57;14.03;;;;;;;23.17;49.23;101337.29;1746136;81;21020;-48
2021/09/12 03:52:09;;;;;;;16.82;12.70;;;;;;;23.18;49.40;101341.66;1693514;83;21054;-48
2021/09/12 03:54:36;;;;;;;17.25;12.80;;;;;;;23.16;49.51;101343.56;1693267;84;21636;-47
2021/09/12 03:57:03;;;;;;;14.33;12.18;;;;;;;23.15;49.60;101344.50;1746363;81;21003;-51
2021/09/12 03:59:30;;;;;;;18.80;12.85;;;;;;;23.20;49.26;101339.77;1693413;84;20981;-48
2021/09/12 04:01:56;;;;;;;15.90;14.20;;;;;;;23.20;49.59;101342.42;1746323;79;21487;-48
2021/09/12 04:04:23;;;;;;;16.80;13.85;;;;;;;23.19;49.76;101343.36;1750521;81;21138;-50
2021/09/12 04:06:49;;;;;;;14.65;13.15;;;;;;;23.18;50.01;101340.34;1748680;81;21006;-49
2021/09/12 04:09:16;;;;;;;15.45;12.82;;;;;;;23.16;50.11;101341.74;1693128;84;21017;-51
2021/09/12 04:11:43;;;;;;;15.20;13.70;;;;;;;23.12;50.40;101347.38;1746180;81;21079;-50
2021/09/12 04:14:10;;;;;;;14.80;12.88;;;;;;;23.06;50.72;101345.11;1693242;84;21037;-53
2021/09/12 04:16:36;;;;;;;15.50;13.90;;;;;;;23.07;50.27;101352.11;1746476;81;21019;-53
2021/09/12 04:19:05;;;;;;;16.32;13.35;;;;;;;23.06;50.21;101353.08;1704811;83;21265;-49
2021/09/12 04:21:32;;;;;;;14.38;12.63;;;;;;;23.08;49.98;101360.47;1729278;82;20987;-50
2021/09/12 04:23:58;;;;;;;15.95;13.13;;;;;;;23.11;49.96;101355.80;1726853;82;21062;-49
2021/09/12 04:26:25;;;;;;;15.08;12.90;;;;;;;23.14;49.87;101358.25;1730944;82;21069;-47
2021/09/12 04:28:52;;;;;;;14.83;12.78;;;;;;;23.18;49.87;101361.58;1726741;82;21034;-47
2021/09/12 04:31:18;;;;;;;15.32;13.18;;;;;;;23.21;50.05;101363.55;1729747;82;21493;-50
2021/09/12 04:33:45;;;;;;;14.45;13.05;;;;;;;23.21;50.13;101375.97;1700995;84;21035;-47
2021/09/12 04:36:11;;;;;;;19.07;13.22;;;;;;;23.23;50.35;101368.75;1714235;84;21570;-49
2021/09/12 04:38:38;;;;;;;14.87;12.10;;;;;;;23.34;50.27;101370.28;1703542;83;21054;-49
2021/09/12 04:41:04;;;;;;;15.63;13.25;;;;;;;23.39;49.77;101372.15;1714591;83;21123;-50
2021/09/12 04:43:32;;;;;;;15.53;12.63;;;;;;;23.42;49.46;101379.94;1708422;83;21047;-49
2021/09/12 04:45:59;;;;;;;14.20;12.70;;;;;;;23.45;49.71;101380.58;1704063;83;20994;-47
2021/09/12 04:48:25;;;;;;;14.45;12.93;;;;;;;23.53;49.55;101381.42;1703275;83;21735;-50
2021/09/12 04:50:52;;;;;;;17.77;12.25;;;;;;;23.57;49.49;101376.75;1714160;84;21070;-49
2021/09/12 04:53:19;;;;;;;13.95;12.58;;;;;;;23.62;49.19;101378.14;1729567;82;21018;-49
2021/09/12 04:55:46;;;;;;;17.60;13.62;;;;;;;23.67;49.07;101374.72;1736590;82;20994;-49
2021/09/12 04:58:13;;;;;;;15.68;13.15;;;;;;;23.69;49.27;101374.14;1735954;82;20999;-49
2021/09/12 05:00:40;;;;;;;17.80;13.55;;;;;;;23.75;49.38;101361.77;1735033;82;21010;-51
2021/09/12 05:03:09;;;;;;;13.72;12.33;;;;;;;23.83;49.15;101362.11;1709236;83;21003;-49
2021/09/12 05:05:36;;;;;;;14.98;13.08;;;;;;;23.76;48.91;101356.81;1727546;82;21042;-49
2021/09/12 05:08:05;;;;;;;15.00;12.95;;;;;;;23.58;49.25;101359.84;1736828;82;21022;-49
2021/09/12 05:10:32;;;;;;;15.23;13.05;;;;;;;23.59;49.12;101358.91;1726011;82;21037;-48
2021/09/12 05:12:58;;;;;;;16.10;13.00;;;;;;;23.62;48.72;101356.89;1736074;82;21525;-49
2021/09/12 05:15:27;;;;;;;15.40;13.70;;;;;;;23.66;48.56;101354.40;1710804;83;21578;-47
2021/09/12 05:17:55;;;;;;;16.07;13.10;;;;;;;23.69;48.75;101346.24;1714357;83;21583;-50
2021/09/12 05:20:24;;;;;;;17.60;13.20;;;;;;;23.70;48.81;101354.57;1694427;83;21012;-49
2021/09/12 05:22:50;;;;;;;14.30;12.75;;;;;;;23.69;48.89;101354.21;1759242;80;21038;-50
2021/09/12 05:25:17;;;;;;;15.23;13.03;;;;;;;23.67;48.93;101346.82;1756218;81;21504;-47
2021/09/12 05:27:46;;;;;;;15.03;12.20;;;;;;;23.67;48.90;101349.48;1742757;80;21175;-49
2021/09/12 05:30:14;;;;;;;16.12;13.60;;;;;;;23.66;48.86;101349.09;1743307;80;21514;-48
2021/09/12 05:32:45;;;;;;;21.60;13.32;;;;;;;23.68;48.91;101357.81;1758658;80;21018;-51
2021/09/12 05:35:11;;;;;;;16.62;13.10;;;;;;;23.69;48.75;101359.52;1744164;81;21066;-49
2021/09/12 05:37:37;;;;;;;15.98;12.63;;;;;;;23.70;48.43;101361.22;1745898;81;21013;-50
2021/09/12 05:40:07;;;;;;;18.25;13.28;;;;;;;23.72;48.20;101368.60;1742950;81;21046;-51
2021/09/12 05:42:34;;;;;;;14.90;12.80;;;;;;;23.73;48.25;101361.02;1743242;81;21038;-49
2021/09/12 05:45:03;;;;;;;15.70;13.30;;;;;;;23.76;47.93;101354.16;1759679;81;21025;-46
2021/09/12 05:47:30;;;;;;;17.20;12.68;;;;;;;23.76;47.59;101355.48;1744077;81;20958;-49
2021/09/12 05:49:58;;;;;;;36.23;14.18;;;;;;;23.77;47.66;101349.23;1748653;81;20975;-46
2021/09/12 05:52:26;;;;;;;16.70;12.78;;;;;;;23.79;47.54;101357.09;1693209;84;21061;-50
2021/09/12 05:54:54;;;;;;;15.23;12.58;;;;;;;23.81;47.78;101354.72;1693097;84;21097;-49
2021/09/12 05:57:22;;;;;;;17.92;13.98;;;;;;;23.81;48.16;101364.02;1693048;83;21018;-50
2021/09/12 05:59:49;;;;;;;18.00;13.08;;;;;;;23.82;48.10;101364.38;1743538;81;21020;-47
2021/09/12 06:02:16;;;;;;;14.63;12.63;;;;;;;23.82;48.18;101363.05;1743334;81;21020;-49
2021/09/12 06:04:44;;;;;;;15.28;12.20;;;;;;;23.84;48.06;101365.63;1744560;81;21031;-49
2021/09/12 06:07:11;;;;;;;13.98;12.03;;;;;;;23.85;48.24;101361.53;1693097;83;21069;-47
2021/09/12 06:09:38;;;;;;;14.90;12.43;;;;;;;23.86;48.20;101356.60;1755013;81;21478;-50
2021/09/12 06:12:08;;;;;;;16.40;12.78;;;;;;;23.88;48.18;101351.17;1743255;80;21027;-53
2021/09/12 06:14:35;;;;;;;20.72;12.80;;;;;;;23.91;48.06;101357.12;1743418;81;21043;-46
2021/09/12 06:17:07;;;;;;;19.37;12.53;;;;;;;23.95;47.88;101355.96;1739856;81;21567;-51
2021/09/12 06:19:36;;;;;;;16.40;13.20;;;;;;;23.99;47.96;101356.13;1767277;80;21089;-49
2021/09/12 06:22:05;;;;;;;15.55;13.60;;;;;;;24.04;48.11;101354.52;1765517;80;21020;-49
2021/09/12 06:24:32;;;;;;;14.65;13.10;;;;;;;24.08;47.97;101358.67;1765772;80;21018;-48
2021/09/12 06:27:01;;;;;;;14.87;12.18;;;;;;;24.12;47.84;101357.03;1766996;80;21041;-48
2021/09/12 06:29:28;;;;;;;17.32;13.10;;;;;;;24.18;47.79;101361.94;1768249;80;21042;-50
2021/09/12 06:31:55;;;;;;;16.00;12.65;;;;;;;24.24;47.66;101358.85;1766770;80;21010;-45
2021/09/12 06:34:22;;;;;;;14.13;12.63;;;;;;;24.38;47.54;101369.03;1772028;80;20971;-51
2021/09/12 06:36:48;;;;;;;17.62;12.37;;;;;;;24.53;47.67;101371.93;1773949;80;21041;-48
2021/09/12 06:39:20;;;;;;;14.60;12.00;;;;;;;24.65;47.37;101377.72;1774441;80;21610;-50
2021/09/12 06:41:45;;;;;;;16.70;12.73;;;;;;;24.71;46.82;101377.31;1750630;81;21025;-48
2021/09/12 06:44:13;;;;;;;17.37;12.28;;;;;;;24.71;46.73;101371.99;1768550;80;21498;-50
2021/09/12 06:46:39;;;;;;;14.43;12.55;;;;;;;24.71;46.73;101371.99;1769010;80;21502;-50
2021/09/12 06:49:07;;;;;;;14.18;12.55;;;;;;;24.73;46.88;101375.39;1769017;80;21541;-50
2021/09/12 06:51:34;;;;;;;14.07;12.60;;;;;;;24.72;47.07;101373.68;1767451;80;21488;-49
2021/09/12 06:54:01;;;;;;;17.20;12.60;;;;;;;24.74;47.14;101386.43;1765574;80;21041;-49
2021/09/12 06:56:28;;;;;;;15.35;12.30;;;;;;;24.74;47.08;101383.77;1766070;80;21058;-46
2021/09/12 06:58:55;;;;;;;15.10;13.05;;;;;;;24.75;47.04;101386.81;1775888;80;20983;-47
2021/09/12 07:01:21;;;;;;;14.35;12.20;;;;;;;24.76;46.76;101383.17;1766803;80;21558;-45
2021/09/12 07:03:48;;;;;;;16.75;12.73;;;;;;;24.77;46.75;101387.56;1766619;80;21146;-44
2021/09/12 07:06:15;;;;;;;14.68;11.73;;;;;;;24.81;46.87;101397.03;1779346;80;21089;-49
2021/09/12 07:08:42;;;;;;;16.40;12.28;;;;;;;24.83;46.92;101389.78;1769977;80;21517;-48
2021/09/12 07:11:13;;;;;;;13.25;11.80;;;;;;;24.83;46.92;101389.78;1775035;80;21020;-47
2021/09/12 07:13:41;;;;;;;14.98;11.88;;;;;;;24.87;47.19;101392.09;1764166;80;21049;-50
2021/09/12 07:16:08;;;;;;;14.45;11.78;;;;;;;24.95;46.71;101395.09;1768207;80;21037;-47
2021/09/12 07:18:36;;;;;;;15.03;12.15;;;;;;;25.01;46.80;101400.45;1768194;80;21046;-49
2021/09/12 07:21:02;;;;;;;16.32;12.58;;;;;;;25.01;46.80;101400.45;1784984;80;21470;-50
2021/09/12 07:23:29;;;;;;;15.53;12.78;;;;;;;25.06;46.15;101401.45;1770932;80;21029;-46
2021/09/12 07:25:56;;;;;;;14.07;11.80;;;;;;;25.09;45.94;101396.75;1771326;80;21510;-47
2021/09/12 07:28:22;;;;;;;17.15;12.58;;;;;;;25.02;46.26;101398.14;1774154;80;21006;-48
2021/09/12 07:30:49;;;;;;;16.65;12.23;;;;;;;25.14;46.15;101393.30;1772345;80;21557;-47
2021/09/12 07:33:15;;;;;;;14.40;12.82;;;;;;;25.19;45.72;101400.45;1777082;80;21036;-51
2021/09/12 07:35:43;;;;;;;13.85;12.35;;;;;;;25.22;45.47;101392.25;1769222;80;21049;-46
2021/09/12 07:38:09;;;;;;;18.82;12.37;;;;;;;25.26;44.65;101385.74;1771930;80;20978;-47
2021/09/12 07:40:36;;;;;;;14.55;12.85;;;;;;;25.30;44.77;101385.89;1774672;80;20977;-46
2021/09/12 07:43:03;;;;;;;15.08;12.23;;;;;;;25.30;44.77;101385.89;1774314;80;21514;-47
2021/09/12 07:45:30;;;;;;;14.30;11.88;;;;;;;25.33;45.10;101381.64;1773926;80;21048;-47
2021/09/12 07:47:56;;;;;;;13.08;11.75;;;;;;;25.34;44.92;101381.17;1776606;80;21020;-52
2021/09/12 07:50:23;;;;;;;15.15;11.73;;;;;;;25.33;44.90;101376.32;1774790;80;21029;-47
2021/09/12 07:52:50;;;;;;;15.48;11.85;;;;;;;25.34;44.79;101380.70;1777271;80;21010;-51
2021/09/12 07:55:18;;;;;;;15.28;12.93;;;;;;;25.37;44.92;101379.13;1771362;80;21036;-49
2021/09/12 07:57:46;;;;;;;16.50;11.30;;;;;;;25.39;44.97;101382.53;1780222;80;21108;-47
2021/09/12 08:00:14;;;;;;;14.13;11.93;;;;;;;25.41;44.69;101373.97;1772527;80;21013;-48
2021/09/12 08:02:41;;;;;;;16.55;12.23;;;;;;;25.44;44.73;101376.42;1772308;80;20982;-49
2021/09/12 08:05:10;;;;;;;18.25;12.98;;;;;;;25.48;44.82;101382.37;1771401;80;21048;-46
2021/09/12 08:07:37;;;;;;;17.15;12.68;;;;;;;25.57;44.70;101379.89;1783286;80;21505;-50
2021/09/12 08:10:04;;;;;;;16.23;12.60;;;;;;;25.57;44.70;101379.89;1775106;80;20953;-46
2021/09/12 08:12:32;;;;;;;15.00;11.18;;;;;;;25.63;44.39;101384.77;1778688;80;21041;-47
2021/09/12 08:15:00;;;;;;;14.33;11.85;;;;;;;25.68;44.60;101382.59;1780098;80;21839;-50
2021/09/12 08:17:27;;;;;;;14.68;11.75;;;;;;;25.72;44.55;101378.73;1780998;80;21185;-47
2021/09/12 08:19:54;;;;;;;14.93;12.05;;;;;;;25.79;43.92;101385.31;1776424;80;21064;-51
2021/09/12 08:22:21;;;;;;;14.98;12.30;;;;;;;25.83;43.53;101382.78;1768934;80;21005;-47
2021/09/12 08:24:49;;;;;;;15.85;11.85;;;;;;;25.90;43.50;101382.33;1771506;80;21123;-47
2021/09/12 08:27:16;;;;;;;16.07;11.78;;;;;;;25.94;43.34;101380.65;1774712;80;21049;-49
2021/09/12 08:29:43;;;;;;;14.03;11.57;;;;;;;25.99;43.54;101381.64;1774029;80;21013;-48
2021/09/12 08:32:11;;;;;;;17.50;12.05;;;;;;;26.08;43.88;101379.62;1774279;80;21017;-50
2021/09/12 08:34:37;;;;;;;14.70;13.00;;;;;;;26.08;43.88;101379.62;1774264;80;21062;-47
2021/09/12 08:37:04;;;;;;;14.50;12.05;;;;;;;26.13;43.72;101376.95;1773511;80;21083;-48
2021/09/12 08:39:32;;;;;;;17.80;12.37;;;;;;;26.17;43.49;101375.75;1771136;80;21505;-49
2021/09/12 08:41:58;;;;;;;13.43;11.68;;;;;;;26.22;43.93;101380.27;1771010;80;20978;-50
2021/09/12 08:44:26;;;;;;;13.62;11.68;;;;;;;26.27;43.43;101378.58;1779170;80;21017;-50
2021/09/12 08:46:52;;;;;;;14.00;12.10;;;;;;;26.31;43.62;101370.70;1782491;80;21029;-49
2021/09/12 08:49:19;;;;;;;16.93;12.35;;;;;;;26.35;43.85;101372.16;1776294;80;21053;-51
2021/09/12 08:51:45;;;;;;;16.15;11.57;;;;;;;26.37;43.79;101368.89;1781876;80;21489;-49
2021/09/12 08:54:12;;;;;;;13.95;12.28;;;;;;;26.43;43.62;101373.75;1777555;80;20997;-50
2021/09/12 08:56:39;;;;;;;17.40;11.00;;;;;;;26.48;42.42;101371.59;1775659;80;21076;-52
2021/09/12 08:59:24;;;;;;;16.23;11.28;;;;;;;26.52;41.69;101374.38;1771315;80;21072;-46
2021/09/12 09:01:54;;;;;;;16.52;12.50;;;;;;;26.54;42.57;101369.77;1783375;80;21045;-51
2021/09/12 09:04:21;;;;;;;17.70;12.55;;;;;;;26.61;42.88;101376.30;1771198;80;21021;-48
2021/09/12 09:06:48;;;;;;;14.40;11.12;;;;;;;26.65;43.08;101371.09;1772511;80;21540;-48
2021/09/12 09:09:15;;;;;;;15.53;11.10;;;;;;;26.72;42.57;101372.34;1767651;80;20970;-48
2021/09/12 09:11:43;;;;;;;15.95;12.43;;;;;;;26.78;41.68;101369.19;1781339;80;21028;-54
2021/09/12 09:14:20;;;;;;;17.65;11.45;;;;;;;26.84;42.29;101367.36;1775822;80;21026;-50
2021/09/12 09:16:49;;;;;;;12.82;11.15;;;;;;;26.89;41.48;101363.86;1778128;80;20997;-50
2021/09/12 09:19:15;;;;;;;13.00;11.00;;;;;;;26.94;41.10;101368.80;1774596;80;21012;-47
2021/09/12 09:21:46;;;;;;;14.85;11.60;;;;;;;26.98;41.18;101366.25;1772976;80;21557;-50
2021/09/12 09:24:22;;;;;;;13.38;11.78;;;;;;;27.01;41.44;101365.53;1772622;80;20974;-51
2021/09/12 09:26:58;;;;;;;16.80;10.65;;;;;;;27.08;40.98;101367.23;1776563;80;21555;-48
2021/09/12 09:29:34;;;;;;;17.62;11.85;;;;;;;27.13;41.11;101371.22;1758808;80;21506;-46
2021/09/12 09:32:14;;;;;;;16.48;11.28;;;;;;;27.16;40.47;101364.27;1755716;80;21494;-48
2021/09/12 09:34:43;;;;;;;11.83;10.63;;;;;;;27.18;40.60;101363.66;1770466;80;20993;-48
2021/09/12 09:37:14;;;;;;;13.25;10.65;;;;;;;27.22;40.55;101358.42;1744768;80;20982;-51
2021/09/12 09:39:46;;;;;;;14.93;11.35;;;;;;;27.25;40.85;101359.53;1772315;80;21029;-46
2021/09/12 09:42:40;;;;;;;12.35;10.53;;;;;;;27.30;41.18;101358.67;1699176;83;21101;-47
2021/09/12 09:45:16;;;;;;;17.42;10.28;;;;;;;27.35;40.90;101358.31;1699083;84;21199;-50
2021/09/12 09:47:51;;;;;;;17.45;10.25;;;;;;;27.39;40.62;101357.94;1699137;84;21114;-49
2021/09/12 09:50:21;;;;;;;14.03;11.57;;;;;;;27.44;39.67;101360.72;1698725;84;21015;-50
2021/09/12 09:52:54;;;;;;;14.98;11.22;;;;;;;27.47;39.44;101356.47;1699485;83;21015;-50
2021/09/12 09:55:26;;;;;;;13.13;10.60;;;;;;;27.52;39.82;101358.25;1697043;83;20994;-49
2021/09/12 09:57:55;;;;;;;15.30;9.93;;;;;;;27.58;39.56;101357.75;1696729;84;21523;-48
2021/09/12 10:00:24;;;;;;;10.80;8.05;;;;;;;27.64;38.90;101353.22;1699659;84;21050;-49
2021/09/12 10:02:51;;;;;;;14.10;11.08;;;;;;;27.69;37.17;101354.56;1699651;84;21090;-52
2021/09/12 10:05:17;;;;;;;16.55;9.58;;;;;;;27.76;38.69;101357.58;1699552;84;21074;-49
2021/09/12 10:07:46;;;;;;;10.82;8.70;;;;;;;27.79;38.38;101350.61;1699548;83;21059;-48
2021/09/12 10:10:15;;;;;;;10.93;9.83;;;;;;;27.82;38.20;101353.05;1699603;84;21016;-49
2021/09/12 10:12:51;;;;;;;11.95;9.38;;;;;;;27.87;38.69;101352.15;1699618;84;20980;-47
2021/09/12 10:15:32;;;;;;;12.75;11.22;;;;;;;27.94;39.20;101358.21;1699206;83;21143;-51
2021/09/12 10:17:58;;;;;;;17.75;13.30;;;;;;;28.00;39.89;101352.84;1694731;84;21004;-47
2021/09/12 10:20:30;;;;;;;14.03;11.45;;;;;;;28.07;40.20;101356.20;1695181;84;21045;-47
2021/09/12 10:23:01;;;;;;;;;;;;;;;28.13;40.37;101357.02;1701519;84;21583;-47
2021/09/12 10:25:32;;;;;;;16.70;11.85;;;;;;;28.19;40.13;101351.65;1663005;86;20130;-46
2021/09/12 10:28:06;;;;;;;13.95;10.90;;;;;;;28.23;39.88;101346.88;1644081;87;21051;-52
2021/09/12 10:30:38;;;;;;;13.30;10.75;;;;;;;28.25;39.79;101344.42;1644156;87;21541;-48
2021/09/12 10:33:16;;;;;;;13.55;9.33;;;;;;;28.29;39.39;101340.50;1638662;87;21031;-46
2021/09/12 10:36:01;;;;;;;12.58;10.10;;;;;;;28.35;38.95;101334.62;1644155;87;21046;-47
2021/09/12 10:38:39;;;;;;;10.65;9.18;;;;;;;28.41;38.21;101336.76;1638689;87;21081;-47
2021/09/12 10:41:14;;;;;;;11.53;10.00;;;;;;;28.47;37.32;101334.88;1638559;87;21014;-48
2021/09/12 10:43:47;;;;;;;14.58;10.23;;;;;;;28.53;37.69;101335.69;1644290;87;21118;-46
2021/09/12 10:46:20;;;;;;;12.50;11.18;;;;;;;28.56;37.58;101334.13;1675723;84;21018;-50
2021/09/12 10:49:04;;;;;;;16.93;13.53;;;;;;;28.58;37.58;101333.50;1672399;85;21038;-49
2021/09/12 10:51:35;;;;;;;13.90;10.95;;;;;;;28.60;37.56;101338.71;1680496;83;21527;-47
2021/09/12 10:54:02;;;;;;;14.47;11.68;;;;;;;28.61;38.13;101340.39;1701921;83;21502;-48
2021/09/12 10:56:30;;;;;;;20.12;13.15;;;;;;;28.60;38.74;101338.23;1723259;83;21026;-48
2021/09/12 10:59:04;;;;;;;13.40;11.80;;;;;;;28.57;39.29;101337.14;1725016;83;21019;-49
2021/09/12 11:01:40;;;;;;;15.35;12.13;;;;;;;28.54;41.06;101336.54;1656925;86;22026;-50
2021/09/12 11:04:07;;;;;;;21.40;13.65;;;;;;;28.51;41.53;101334.11;1651291;87;21550;-47
2021/09/12 11:06:38;;;;;;;16.52;11.50;;;;;;;28.46;41.14;101330.49;1656862;86;21118;-48
2021/09/12 11:09:23;;;;;;;13.03;11.57;;;;;;;28.42;41.04;101329.58;1642867;87;20983;-49
2021/09/12 11:12:04;;;;;;;13.48;12.10;;;;;;;28.38;40.68;101332.99;1632230;87;21256;-47
2021/09/12 11:14:34;;;;;;;15.55;11.53;;;;;;;28.34;41.06;101326.21;1642970;87;21506;-47